TimeEDT,TemperatureF,Dew PointF,Humidity,Sea Level PressureIn,VisibilityMPH,Wind Direction,Wind SpeedMPH,Gust SpeedMPH,PrecipitationIn,Events,Conditions,WindDirDegrees,DateUTC
12:02 AM,51.8,48.2,88,30.37,10.0,NE,3.5,-,N/A,,Mostly Cloudy,40,2013-10-14 04:02:00
12:48 AM,51.8,48.2,88,30.37,10.0,NE,2.3,-,N/A,,Overcast,40,2013-10-14 04:48:00
12:58 AM,52.7,49.5,89,30.38,10.0,NE,2.3,-,N/A,,Overcast,40,2013-10-14 04:58:00
1:14 AM,51.8,50.0,94,30.36,10.0,NNE,3.5,-,N/A,,Mostly Cloudy,30,2013-10-14 05:14:00
1:16 AM,51.8,50.0,94,30.36,10.0,NE,2.3,-,N/A,,Scattered Clouds,40,2013-10-14 05:16:00
1:24 AM,51.8,50.0,94,30.36,10.0,NNE,2.3,-,N/A,,Mostly Cloudy,30,2013-10-14 05:24:00
1:30 AM,51.8,50.0,94,30.36,10.0,North,2.3,-,N/A,,Scattered Clouds,10,2013-10-14 05:30:00
1:58 AM,51.4,49.3,92,30.37,10.0,North,2.3,-,N/A,,Clear,360,2013-10-14 05:58:00
2:58 AM,49.8,48.9,97,30.36,10.0,North,2.3,-,N/A,,Clear,350,2013-10-14 06:58:00
3:58 AM,47.8,47.5,99,30.36,9.0,NE,1.2,-,N/A,,Clear,40,2013-10-14 07:58:00
4:58 AM,46.8,46.4,99,30.36,7.0,NE,1.2,-,N/A,,Clear,50,2013-10-14 08:58:00
5:44 AM,46.4,46.4,100,30.35,2.5,Calm,Calm,-,N/A,,Clear,0,2013-10-14 09:44:00
5:48 AM,46.4,46.4,100,30.35,3.0,Calm,Calm,-,N/A,,Clear,0,2013-10-14 09:48:00
5:58 AM,46.0,45.9,99,30.36,10.0,Calm,Calm,-,N/A,,Clear,0,2013-10-14 09:58:00
6:20 AM,46.4,44.6,93,30.35,2.0,Calm,Calm,-,N/A,,Clear,0,2013-10-14 10:20:00
6:22 AM,46.4,44.6,93,30.35,1.8,Calm,Calm,-,N/A,,Clear,0,2013-10-14 10:22:00
6:24 AM,46.4,44.6,93,30.35,1.5,Calm,Calm,-,N/A,,Clear,0,2013-10-14 10:24:00
6:26 AM,46.4,44.6,93,30.35,1.2,Calm,Calm,-,N/A,,Clear,0,2013-10-14 10:26:00
6:30 AM,46.4,44.6,93,30.35,1.8,NE,1.2,-,N/A,,Clear,50,2013-10-14 10:30:00
6:32 AM,46.4,44.6,93,30.35,2.0,NE,1.2,-,N/A,,Clear,50,2013-10-14 10:32:00
6:36 AM,44.6,44.6,100,30.35,3.0,NE,1.2,-,N/A,,Clear,50,2013-10-14 10:36:00
6:58 AM,46.0,45.7,99,30.36,8.0,Calm,Calm,-,N/A,,Clear,0,2013-10-14 10:58:00
7:18 AM,44.6,44.6,100,30.35,2.5,Calm,Calm,-,N/A,,Clear,0,2013-10-14 11:18:00
7:24 AM,44.6,44.6,100,30.35,1.8,Calm,Calm,-,N/A,,Clear,0,2013-10-14 11:24:00
7:28 AM,44.6,44.6,100,30.35,2.5,Calm,Calm,-,N/A,,Clear,0,2013-10-14 11:28:00
7:32 AM,44.6,44.6,100,30.35,3.0,Calm,Calm,-,N/A,,Clear,0,2013-10-14 11:32:00
7:58 AM,46.6,46.4,99,30.37,10.0,Calm,Calm,-,N/A,,Clear,0,2013-10-14 11:58:00
8:58 AM,52.5,52.3,99,30.38,10.0,ENE,1.2,-,N/A,,Clear,70,2013-10-14 12:58:00
9:16 AM,55.4,51.8,88,30.37,10.0,East,5.8,-,N/A,,Partly Cloudy,90,2013-10-14 13:16:00
9:58 AM,56.8,51.4,82,30.38,10.0,Variable,3.5,-,N/A,,Scattered Clouds,0,2013-10-14 13:58:00
10:14 AM,57.2,50.0,77,30.37,10.0,Variable,2.3,-,N/A,,Mostly Cloudy,0,2013-10-14 14:14:00
10:18 AM,57.2,50.0,77,30.37,10.0,ENE,2.3,-,N/A,,Mostly Cloudy,70,2013-10-14 14:18:00
10:20 AM,57.2,50.0,77,30.37,10.0,East,3.5,-,N/A,,Mostly Cloudy,80,2013-10-14 14:20:00
10:22 AM,57.2,50.0,77,30.37,10.0,Variable,2.3,-,N/A,,Mostly Cloudy,0,2013-10-14 14:22:00
10:28 AM,57.2,50.0,77,30.37,10.0,NE,1.2,-,N/A,,Mostly Cloudy,40,2013-10-14 14:28:00
10:58 AM,57.7,49.6,74,30.37,10.0,Calm,Calm,-,N/A,,Overcast,0,2013-10-14 14:58:00
11:50 AM,59.0,50.0,72,30.34,10.0,West,4.6,-,N/A,,Overcast,260,2013-10-14 15:50:00
11:58 AM,58.1,49.5,73,30.35,10.0,Variable,2.3,-,N/A,,Mostly Cloudy,0,2013-10-14 15:58:00
12:04 PM,59.0,50.0,72,30.34,10.0,Variable,3.5,-,N/A,,Scattered Clouds,0,2013-10-14 16:04:00
12:58 PM,62.2,49.5,63,30.32,10.0,Variable,3.5,-,N/A,,Clear,0,2013-10-14 16:58:00
1:58 PM,64.4,49.3,58,30.29,6.0,SE,4.6,-,N/A,,Haze,140,2013-10-14 17:58:00
2:52 PM,66.2,50.0,56,30.26,2.5,Variable,4.6,-,N/A,,Haze,0,2013-10-14 18:52:00
2:58 PM,66.2,50.0,56,30.27,3.0,ESE,4.6,-,N/A,,Haze,120,2013-10-14 18:58:00
3:50 PM,66.2,50.0,56,30.24,2.5,Variable,3.5,-,N/A,,Haze,0,2013-10-14 19:50:00
3:54 PM,66.2,50.0,56,30.25,1.8,Variable,2.3,-,N/A,,Haze,0,2013-10-14 19:54:00
3:56 PM,66.2,50.0,56,30.24,1.5,Variable,1.2,-,N/A,,Haze,0,2013-10-14 19:56:00
3:58 PM,66.7,50.4,56,30.26,1.5,Calm,Calm,-,N/A,,Haze,0,2013-10-14 19:58:00
4:02 PM,66.2,50.0,56,30.25,1.2,SE,3.5,-,N/A,,Haze,130,2013-10-14 20:02:00
4:04 PM,66.2,50.0,56,30.25,1.5,ESE,3.5,-,N/A,,Haze,120,2013-10-14 20:04:00
4:06 PM,66.2,50.0,56,30.25,1.2,Variable,3.5,-,N/A,,Haze,0,2013-10-14 20:06:00
4:08 PM,66.2,50.0,56,30.24,1.5,SSE,3.5,-,N/A,,Haze,150,2013-10-14 20:08:00
4:14 PM,66.2,50.0,56,30.24,1.2,Variable,1.2,-,N/A,,Haze,0,2013-10-14 20:14:00
4:42 PM,68.0,50.0,52,30.24,1.0,Variable,3.5,-,N/A,,Haze,0,2013-10-14 20:42:00
4:48 PM,68.0,50.0,52,30.24,1.2,SE,4.6,-,N/A,,Haze,130,2013-10-14 20:48:00
4:50 PM,66.2,50.0,56,30.24,1.2,SE,2.3,-,N/A,,Haze,130,2013-10-14 20:50:00
4:52 PM,66.2,50.0,56,30.24,1.5,SE,2.3,-,N/A,,Haze,130,2013-10-14 20:52:00
4:58 PM,66.7,50.2,55,30.26,1.5,South,3.5,-,N/A,,Haze,180,2013-10-14 20:58:00
5:00 PM,66.2,50.0,56,30.24,1.2,SSW,4.6,-,N/A,,Haze,200,2013-10-14 21:00:00
5:04 PM,66.2,50.0,56,30.24,1.0,Variable,2.3,-,N/A,,Haze,0,2013-10-14 21:04:00
5:08 PM,66.2,50.0,56,30.25,0.8,Calm,Calm,-,N/A,,Haze,0,2013-10-14 21:08:00
5:10 PM,66.2,50.0,56,30.25,1.0,Variable,1.2,-,N/A,,Haze,0,2013-10-14 21:10:00
5:18 PM,66.2,50.0,56,30.25,1.2,South,4.6,-,N/A,,Haze,170,2013-10-14 21:18:00
5:20 PM,66.2,50.0,56,30.25,1.2,South,3.5,-,N/A,,Haze,170,2013-10-14 21:20:00
5:30 PM,66.2,50.0,56,30.25,1.0,SSW,3.5,-,N/A,,Haze,200,2013-10-14 21:30:00
5:58 PM,65.7,50.5,58,30.26,1.0,SSW,2.3,-,N/A,,Haze,210,2013-10-14 21:58:00
6:16 PM,64.4,53.6,68,30.26,1.2,Calm,Calm,-,N/A,,Haze,0,2013-10-14 22:16:00
6:18 PM,62.6,53.6,72,30.26,1.2,Calm,Calm,-,N/A,,Haze,0,2013-10-14 22:18:00
6:20 PM,62.6,53.6,72,30.26,1.5,NW,2.3,-,N/A,,Haze,320,2013-10-14 22:20:00
6:24 PM,62.6,53.6,72,30.26,1.8,NNW,2.3,-,N/A,,Haze,330,2013-10-14 22:24:00
6:32 PM,60.8,53.6,77,30.26,1.5,NNW,1.2,-,N/A,,Haze,330,2013-10-14 22:32:00
6:46 PM,59.0,53.6,82,30.26,1.8,NNW,1.2,-,N/A,,Haze,330,2013-10-14 22:46:00
6:48 PM,59.0,53.6,82,30.26,2.0,NNW,1.2,-,N/A,,Haze,330,2013-10-14 22:48:00
6:58 PM,59.4,52.3,78,30.28,2.5,NNW,1.2,-,N/A,,Haze,330,2013-10-14 22:58:00
7:04 PM,59.0,53.6,82,30.27,3.0,Calm,Calm,-,N/A,,Haze,0,2013-10-14 23:04:00
7:12 PM,59.0,53.6,82,30.27,2.5,NNW,1.2,-,N/A,,Haze,330,2013-10-14 23:12:00
7:18 PM,59.0,51.8,77,30.27,3.0,NNW,1.2,-,N/A,,Haze,330,2013-10-14 23:18:00
7:28 PM,57.2,51.8,82,30.27,2.5,NNW,1.2,-,N/A,,Haze,340,2013-10-14 23:28:00
7:44 PM,57.2,51.8,82,30.27,3.0,Calm,Calm,-,N/A,,Haze,0,2013-10-14 23:44:00
7:58 PM,56.5,52.9,88,30.29,3.0,Calm,Calm,-,N/A,,Haze,0,2013-10-14 23:58:00
8:04 PM,57.2,51.8,82,30.27,2.5,Calm,Calm,-,N/A,,Clear,0,2013-10-15 00:04:00
8:58 PM,55.2,52.9,92,30.28,2.5,Calm,Calm,-,N/A,,Overcast,0,2013-10-15 00:58:00
9:16 PM,55.4,53.6,94,30.27,3.0,Calm,Calm,-,N/A,,Overcast,0,2013-10-15 01:16:00
9:38 PM,55.4,53.6,94,30.27,2.5,Calm,Calm,-,N/A,,Overcast,0,2013-10-15 01:38:00
9:54 PM,55.4,53.6,94,30.28,3.0,Calm,Calm,-,N/A,,Overcast,0,2013-10-15 01:54:00
9:58 PM,55.6,53.4,92,30.28,3.0,Calm,Calm,-,N/A,,Overcast,0,2013-10-15 01:58:00
10:10 PM,55.4,53.6,94,30.28,2.5,Calm,Calm,-,N/A,,Overcast,0,2013-10-15 02:10:00
10:22 PM,55.4,53.6,94,30.27,3.0,Calm,Calm,-,N/A,,Overcast,0,2013-10-15 02:22:00
10:26 PM,55.4,53.6,94,30.27,2.5,Calm,Calm,-,N/A,,Overcast,0,2013-10-15 02:26:00
10:52 PM,55.4,53.6,94,30.27,3.0,Calm,Calm,-,N/A,,Scattered Clouds,0,2013-10-15 02:52:00
10:58 PM,55.2,53.4,94,30.28,3.0,Calm,Calm,-,N/A,,Scattered Clouds,0,2013-10-15 02:58:00
11:16 PM,55.4,53.6,94,30.26,2.5,Calm,Calm,-,N/A,,Mostly Cloudy,0,2013-10-15 03:16:00
11:28 PM,53.6,53.6,100,30.26,3.0,Calm,Calm,-,N/A,,Mostly Cloudy,0,2013-10-15 03:28:00
11:52 PM,53.6,51.8,94,30.25,2.5,Calm,Calm,-,N/A,,Clear,0,2013-10-15 03:52:00
11:58 PM,52.5,52.3,99,30.27,2.5,Calm,Calm,-,N/A,,Clear,0,2013-10-15 03:58:00